sensor_id;sensor_type;location;lat;lon;timestamp;pressure;altitude;pressure_sealevel;temperature;humidity
40384;BME280;26097;42.366;23.818;2023-01-29T00:01:51;94049.44;;;-1.38;100.00
40384;BME280;26097;42.366;23.818;2023-01-29T00:04:52;94043.47;;;-1.39;100.00
40384;BME280;26097;42.366;23.818;2023-01-29T00:07:53;94057.19;;;-1.41;100.00
40384;BME280;26097;42.366;23.818;2023-01-29T00:10:59;94044.53;;;-1.46;100.00
40384;BME280;26097;42.366;23.818;2023-01-29T00:14:00;94054.88;;;-1.49;100.00
40384;BME280;26097;42.366;23.818;2023-01-29T00:17:00;94049.66;;;-1.46;100.00
40384;BME280;26097;42.366;23.818;2023-01-29T00:20:00;94053.97;;;-1.48;100.00
40384;BME280;26097;42.366;23.818;2023-01-29T00:23:01;94059.88;;;-1.46;100.00
40384;BME280;26097;42.366;23.818;2023-01-29T00:26:01;94052.19;;;-1.45;100.00
40384;BME280;26097;42.366;23.818;2023-01-29T00:29:02;94064.19;;;-1.48;100.00
40384;BME280;26097;42.366;23.818;2023-01-29T00:32:02;94063.31;;;-1.47;100.00
40384;BME280;26097;42.366;23.818;2023-01-29T00:35:03;94070.19;;;-1.49;100.00
40384;BME280;26097;42.366;23.818;2023-01-29T00:38:03;94065.09;;;-1.49;100.00
40384;BME280;26097;42.366;23.818;2023-01-29T00:41:09;94065.00;;;-1.46;100.00
40384;BME280;26097;42.366;23.818;2023-01-29T00:44:28;94065.84;;;-1.46;100.00
40384;BME280;26097;42.366;23.818;2023-01-29T00:47:47;94065.00;;;-1.46;100.00
40384;BME280;26097;42.366;23.818;2023-01-29T00:50:47;94065.00;;;-1.46;100.00
40384;BME280;26097;42.366;23.818;2023-01-29T00:53:48;94070.13;;;-1.48;100.00
40384;BME280;26097;42.366;23.818;2023-01-29T00:56:48;94065.84;;;-1.46;100.00
40384;BME280;26097;42.366;23.818;2023-01-29T00:59:49;94067.50;;;-1.45;100.00
40384;BME280;26097;42.366;23.818;2023-01-29T01:02:49;94070.00;;;-1.43;100.00
40384;BME280;26097;42.366;23.818;2023-01-29T01:06:06;94075.13;;;-1.43;100.00
40384;BME280;26097;42.366;23.818;2023-01-29T01:09:09;94071.78;;;-1.45;100.00
40384;BME280;26097;42.366;23.818;2023-01-29T01:12:28;94077.75;;;-1.45;100.00
40384;BME280;26097;42.366;23.818;2023-01-29T01:15:36;94076.22;;;-1.52;100.00
40384;BME280;26097;42.366;23.818;2023-01-29T01:18:37;94074.53;;;-1.51;100.00
40384;BME280;26097;42.366;23.818;2023-01-29T01:21:38;94076.13;;;-1.49;100.00
40384;BME280;26097;42.366;23.818;2023-01-29T01:24:38;94075.31;;;-1.49;100.00
40384;BME280;26097;42.366;23.818;2023-01-29T01:27:39;94079.66;;;-1.53;100.00
40384;BME280;26097;42.366;23.818;2023-01-29T01:30:40;94077.19;;;-1.54;100.00
40384;BME280;26097;42.366;23.818;2023-01-29T01:33:40;94082.19;;;-1.51;100.00
40384;BME280;26097;42.366;23.818;2023-01-29T01:36:41;94087.41;;;-1.54;100.00
40384;BME280;26097;42.366;23.818;2023-01-29T01:39:41;94087.31;;;-1.51;100.00
40384;BME280;26097;42.366;23.818;2023-01-29T01:42:53;94085.53;;;-1.49;100.00
40384;BME280;26097;42.366;23.818;2023-01-29T01:45:54;94090.75;;;-1.52;100.00
40384;BME280;26097;42.366;23.818;2023-01-29T01:49:15;94089.06;;;-1.53;100.00
40384;BME280;26097;42.366;23.818;2023-01-29T01:52:18;94093.34;;;-1.54;100.00
40384;BME280;26097;42.366;23.818;2023-01-29T01:55:22;94095.75;;;-1.49;100.00
40384;BME280;26097;42.366;23.818;2023-01-29T01:58:27;94099.97;;;-1.47;100.00
40384;BME280;26097;42.366;23.818;2023-01-29T02:01:29;94098.22;;;-1.46;100.00
40384;BME280;26097;42.366;23.818;2023-01-29T02:04:29;94102.47;;;-1.45;100.00
40384;BME280;26097;42.366;23.818;2023-01-29T02:07:49;94100.88;;;-1.49;100.00
40384;BME280;26097;42.366;23.818;2023-01-29T02:11:09;94105.81;;;-1.43;100.00
40384;BME280;26097;42.366;23.818;2023-01-29T02:14:10;94110.03;;;-1.42;100.00
40384;BME280;26097;42.366;23.818;2023-01-29T02:17:13;94101.38;;;-1.38;100.00
40384;BME280;26097;42.366;23.818;2023-01-29T02:20:27;94107.44;;;-1.40;100.00
40384;BME280;26097;42.366;23.818;2023-01-29T02:23:59;94105.78;;;-1.41;100.00
40384;BME280;26097;42.366;23.818;2023-01-29T02:27:20;94112.44;;;-1.36;100.00
40384;BME280;26097;42.366;23.818;2023-01-29T02:30:33;94114.09;;;-1.35;100.00
40384;BME280;26097;42.366;23.818;2023-01-29T02:34:10;94120.16;;;-1.39;100.00
40384;BME280;26097;42.366;23.818;2023-01-29T02:37:08;94119.25;;;-1.36;100.00
40384;BME280;26097;42.366;23.818;2023-01-29T02:40:25;94122.59;;;-1.34;100.00
40384;BME280;26097;42.366;23.818;2023-01-29T02:43:55;94123.44;;;-1.34;100.00
40384;BME280;26097;42.366;23.818;2023-01-29T02:47:21;94126.91;;;-1.35;100.00
40384;BME280;26097;42.366;23.818;2023-01-29T02:50:50;94128.47;;;-1.31;100.00
40384;BME280;26097;42.366;23.818;2023-01-29T02:57:13;94125.13;;;-1.33;100.00
40384;BME280;26097;42.366;23.818;2023-01-29T03:00:19;94125.06;;;-1.31;100.00
40384;BME280;26097;42.366;23.818;2023-01-29T03:03:24;94136.25;;;-1.34;100.00
40384;BME280;26097;42.366;23.818;2023-01-29T03:06:31;94138.81;;;-1.35;100.00
40384;BME280;26097;42.366;23.818;2023-01-29T03:09:34;94129.50;;;-1.38;100.00
40384;BME280;26097;42.366;23.818;2023-01-29T03:12:38;94131.22;;;-1.37;100.00
40384;BME280;26097;42.366;23.818;2023-01-29T03:15:43;94132.06;;;-1.38;100.00
40384;BME280;26097;42.366;23.818;2023-01-29T03:22:11;94137.34;;;-1.42;100.00
40384;BME280;26097;42.366;23.818;2023-01-29T03:25:17;94135.59;;;-1.42;100.00
40384;BME280;26097;42.366;23.818;2023-01-29T03:28:39;94144.94;;;-1.41;100.00
40384;BME280;26097;42.366;23.818;2023-01-29T03:31:59;94151.72;;;-1.40;100.00
40384;BME280;26097;42.366;23.818;2023-01-29T03:35:07;94146.72;;;-1.43;100.00
40384;BME280;26097;42.366;23.818;2023-01-29T03:38:10;94147.47;;;-1.39;100.00
40384;BME280;26097;42.366;23.818;2023-01-29T03:41:32;94161.16;;;-1.40;100.00
40384;BME280;26097;42.366;23.818;2023-01-29T03:44:40;94149.97;;;-1.38;100.00
40384;BME280;26097;42.366;23.818;2023-01-29T03:50:56;94154.34;;;-1.41;100.00
40384;BME280;26097;42.366;23.818;2023-01-29T03:57:45;94155.25;;;-1.44;100.00
40384;BME280;26097;42.366;23.818;2023-01-29T04:01:00;94149.25;;;-1.41;100.00
40384;BME280;26097;42.366;23.818;2023-01-29T04:04:12;94155.25;;;-1.44;100.00
40384;BME280;26097;42.366;23.818;2023-01-29T04:07:16;94155.19;;;-1.41;100.00
40384;BME280;26097;42.366;23.818;2023-01-29T04:10:20;94158.53;;;-1.39;100.00
40384;BME280;26097;42.366;23.818;2023-01-29T04:13:24;94153.38;;;-1.37;100.00
40384;BME280;26097;42.366;23.818;2023-01-29T04:16:30;94156.84;;;-1.40;100.00
40384;BME280;26097;42.366;23.818;2023-01-29T04:19:33;94156.03;;;-1.40;100.00
40384;BME280;26097;42.366;23.818;2023-01-29T04:22:36;94159.38;;;-1.38;100.00
40384;BME280;26097;42.366;23.818;2023-01-29T04:25:43;94162.75;;;-1.38;100.00
40384;BME280;26097;42.366;23.818;2023-01-29T04:32:11;94151.81;;;-1.43;100.00
40384;BME280;26097;42.366;23.818;2023-01-29T04:52:11;94179.38;;;-1.53;100.00
40384;BME280;26097;42.366;23.818;2023-01-29T04:59:06;94185.41;;;-1.55;100.00
40384;BME280;26097;42.366;23.818;2023-01-29T05:02:09;94185.41;;;-1.55;100.00
40384;BME280;26097;42.366;23.818;2023-01-29T05:05:12;94189.66;;;-1.54;100.00
40384;BME280;26097;42.366;23.818;2023-01-29T05:08:16;94183.66;;;-1.53;100.00
40384;BME280;26097;42.366;23.818;2023-01-29T05:11:18;94187.97;;;-1.55;100.00
40384;BME280;26097;42.366;23.818;2023-01-29T05:14:20;94193.00;;;-1.52;100.00
40384;BME280;26097;42.366;23.818;2023-01-29T05:17:22;94198.84;;;-1.49;100.00
40384;BME280;26097;42.366;23.818;2023-01-29T05:20:23;94204.91;;;-1.51;100.00
40384;BME280;26097;42.366;23.818;2023-01-29T05:23:24;94191.31;;;-1.53;100.00
40384;BME280;26097;42.366;23.818;2023-01-29T05:26:25;94198.94;;;-1.52;100.00
40384;BME280;26097;42.366;23.818;2023-01-29T05:29:45;94203.22;;;-1.52;100.00
40384;BME280;26097;42.366;23.818;2023-01-29T05:32:46;94210.03;;;-1.51;100.00
40384;BME280;26097;42.366;23.818;2023-01-29T05:35:47;94198.94;;;-1.52;100.00
40384;BME280;26097;42.366;23.818;2023-01-29T05:38:48;94206.59;;;-1.52;100.00
40384;BME280;26097;42.366;23.818;2023-01-29T05:41:48;94206.66;;;-1.53;100.00
40384;BME280;26097;42.366;23.818;2023-01-29T05:44:49;94210.94;;;-1.54;100.00
40384;BME280;26097;42.366;23.818;2023-01-29T05:47:49;94210.09;;;-1.54;100.00
40384;BME280;26097;42.366;23.818;2023-01-29T05:50:50;94220.34;;;-1.54;100.00
40384;BME280;26097;42.366;23.818;2023-01-29T05:53:50;94221.91;;;-1.50;100.00
40384;BME280;26097;42.366;23.818;2023-01-29T05:56:51;94220.16;;;-1.48;100.00
40384;BME280;26097;42.366;23.818;2023-01-29T05:59:51;94225.19;;;-1.45;100.00
40384;BME280;26097;42.366;23.818;2023-01-29T06:02:51;94220.91;;;-1.45;100.00
40384;BME280;26097;42.366;23.818;2023-01-29T06:05:52;94230.13;;;-1.39;100.00
40384;BME280;26097;42.366;23.818;2023-01-29T06:08:52;94229.09;;;-1.32;100.00
40384;BME280;26097;42.366;23.818;2023-01-29T06:11:53;94229.00;;;-1.28;100.00
40384;BME280;26097;42.366;23.818;2023-01-29T06:14:53;94234.91;;;-1.26;100.00
40384;BME280;26097;42.366;23.818;2023-01-29T06:17:54;94238.16;;;-1.21;100.00
40384;BME280;26097;42.366;23.818;2023-01-29T06:20:59;94239.59;;;-1.11;100.00
40384;BME280;26097;42.366;23.818;2023-01-29T06:23:59;94249.56;;;-1.02;100.00
40384;BME280;26097;42.366;23.818;2023-01-29T06:27:00;94249.56;;;-1.02;100.00
40384;BME280;26097;42.366;23.818;2023-01-29T06:30:02;94252.00;;;-0.97;100.00
40384;BME280;26097;42.366;23.818;2023-01-29T06:33:02;94254.25;;;-0.86;100.00
40384;BME280;26097;42.366;23.818;2023-01-29T06:36:04;94252.38;;;-0.81;100.00
40384;BME280;26097;42.366;23.818;2023-01-29T06:39:04;94259.13;;;-0.77;100.00
40384;BME280;26097;42.366;23.818;2023-01-29T06:42:05;94264.84;;;-0.68;100.00
40384;BME280;26097;42.366;23.818;2023-01-29T06:45:05;94259.63;;;-0.65;100.00
40384;BME280;26097;42.366;23.818;2023-01-29T06:48:06;94257.75;;;-0.60;100.00
40384;BME280;26097;42.366;23.818;2023-01-29T06:51:08;94263.69;;;-0.58;100.00
40384;BME280;26097;42.366;23.818;2023-01-29T06:54:09;94269.69;;;-0.59;100.00
40384;BME280;26097;42.366;23.818;2023-01-29T06:57:10;94270.25;;;-0.49;100.00
40384;BME280;26097;42.366;23.818;2023-01-29T07:00:10;94270.00;;;-0.41;100.00
40384;BME280;26097;42.366;23.818;2023-01-29T07:03:11;94272.25;;;-0.31;100.00
40384;BME280;26097;42.366;23.818;2023-01-29T07:06:12;94270.66;;;-0.35;100.00
40384;BME280;26097;42.366;23.818;2023-01-29T07:09:13;94271.13;;;-0.22;100.00
40384;BME280;26097;42.366;23.818;2023-01-29T07:12:13;94267.41;;;-0.11;100.00
40384;BME280;26097;42.366;23.818;2023-01-29T07:15:14;94270.06;;;0.12;100.00
40384;BME280;26097;42.366;23.818;2023-01-29T07:18:18;94269.84;;;0.19;100.00
40384;BME280;26097;42.366;23.818;2023-01-29T07:21:19;94266.44;;;0.20;100.00
40384;BME280;26097;42.366;23.818;2023-01-29T07:24:19;94276.88;;;0.13;100.00
40384;BME280;26097;42.366;23.818;2023-01-29T07:27:19;94274.91;;;0.22;100.00
40384;BME280;26097;42.366;23.818;2023-01-29T07:30:20;94274.66;;;0.30;100.00
40384;BME280;26097;42.366;23.818;2023-01-29T07:33:20;94277.94;;;0.33;100.00
40384;BME280;26097;42.366;23.818;2023-01-29T07:36:21;94285.06;;;0.25;100.00
40384;BME280;26097;42.366;23.818;2023-01-29T07:39:22;94285.06;;;0.25;100.00
40384;BME280;26097;42.366;23.818;2023-01-29T07:42:22;94287.78;;;0.20;100.00
40384;BME280;26097;42.366;23.818;2023-01-29T07:45:22;94294.31;;;0.29;100.00
40384;BME280;26097;42.366;23.818;2023-01-29T07:48:23;94290.75;;;0.33;100.00
40384;BME280;26097;42.366;23.818;2023-01-29T07:51:23;94292.34;;;0.37;100.00
40384;BME280;26097;42.366;23.818;2023-01-29T07:54:24;94299.00;;;0.43;100.00
40384;BME280;26097;42.366;23.818;2023-01-29T07:57:24;94308.00;;;0.55;100.00
40384;BME280;26097;42.366;23.818;2023-01-29T08:00:27;94311.56;;;0.51;100.00
40384;BME280;26097;42.366;23.818;2023-01-29T08:03:32;94320.16;;;0.50;100.00
40384;BME280;26097;42.366;23.818;2023-01-29T08:06:33;94323.22;;;0.61;100.00
40384;BME280;26097;42.366;23.818;2023-01-29T08:09:34;94324.34;;;0.78;100.00
40384;BME280;26097;42.366;23.818;2023-01-29T08:12:34;94315.69;;;0.82;100.00
40384;BME280;26097;42.366;23.818;2023-01-29T08:15:35;94318.34;;;0.79;100.00
40384;BME280;26097;42.366;23.818;2023-01-29T08:18:36;94329.97;;;0.89;100.00
40384;BME280;26097;42.366;23.818;2023-01-29T08:21:37;94323.63;;;0.99;100.00
40384;BME280;26097;42.366;23.818;2023-01-29T08:24:37;94317.50;;;1.04;100.00
40384;BME280;26097;42.366;23.818;2023-01-29T08:27:39;94320.94;;;1.28;100.00
40384;BME280;26097;42.366;23.818;2023-01-29T08:30:39;94321.28;;;1.17;100.00
40384;BME280;26097;42.366;23.818;2023-01-29T08:33:40;94326.47;;;1.41;100.00
40384;BME280;26097;42.366;23.818;2023-01-29T08:36:40;94328.56;;;1.53;100.00
40384;BME280;26097;42.366;23.818;2023-01-29T08:39:41;94326.75;;;1.55;100.00
40384;BME280;26097;42.366;23.818;2023-01-29T08:42:41;94334.38;;;1.59;100.00
40384;BME280;26097;42.366;23.818;2023-01-29T08:45:42;94332.31;;;1.91;100.00
40384;BME280;26097;42.366;23.818;2023-01-29T08:48:43;94335.88;;;2.10;100.00
40384;BME280;26097;42.366;23.818;2023-01-29T08:51:43;94336.03;;;2.28;100.00
40384;BME280;26097;42.366;23.818;2023-01-29T08:54:43;94336.84;;;2.51;100.00
40384;BME280;26097;42.366;23.818;2023-01-29T08:57:44;94339.69;;;2.45;100.00
40384;BME280;26097;42.366;23.818;2023-01-29T09:00:45;94352.06;;;2.57;100.00
40384;BME280;26097;42.366;23.818;2023-01-29T09:03:45;94338.25;;;2.37;100.00
40384;BME280;26097;42.366;23.818;2023-01-29T09:06:46;94351.72;;;2.65;100.00
40384;BME280;26097;42.366;23.818;2023-01-29T09:09:46;94348.75;;;2.76;100.00
40384;BME280;26097;42.366;23.818;2023-01-29T09:12:47;94343.91;;;2.68;100.00
40384;BME280;26097;42.366;23.818;2023-01-29T09:15:47;94359.50;;;2.42;100.00
40384;BME280;26097;42.366;23.818;2023-01-29T09:18:47;94350.44;;;2.32;100.00
40384;BME280;26097;42.366;23.818;2023-01-29T09:21:48;94345.00;;;2.62;100.00
40384;BME280;26097;42.366;23.818;2023-01-29T09:24:48;94357.16;;;2.36;100.00
40384;BME280;26097;42.366;23.818;2023-01-29T09:27:49;94343.09;;;2.23;100.00
40384;BME280;26097;42.366;23.818;2023-01-29T09:30:50;94344.31;;;2.36;100.00
40384;BME280;26097;42.366;23.818;2023-01-29T09:33:50;94345.09;;;2.38;100.00
40384;BME280;26097;42.366;23.818;2023-01-29T09:36:51;94345.84;;;2.40;100.00
40384;BME280;26097;42.366;23.818;2023-01-29T09:39:51;94338.16;;;2.61;100.00
40384;BME280;26097;42.366;23.818;2023-01-29T09:43:16;94334.06;;;2.78;100.00
40384;BME280;26097;42.366;23.818;2023-01-29T09:46:40;94330.91;;;2.71;100.00
40384;BME280;26097;42.366;23.818;2023-01-29T09:49:46;94333.16;;;2.99;100.00
40384;BME280;26097;42.366;23.818;2023-01-29T09:56:01;94319.63;;;3.15;100.00
40384;BME280;26097;42.366;23.818;2023-01-29T09:59:02;94329.88;;;2.96;100.00
40384;BME280;26097;42.366;23.818;2023-01-29T10:08:50;94317.50;;;3.44;100.00
40384;BME280;26097;42.366;23.818;2023-01-29T10:15:17;94310.69;;;3.43;100.00
40384;BME280;26097;42.366;23.818;2023-01-29T10:25:02;94304.97;;;3.36;100.00
40384;BME280;26097;42.366;23.818;2023-01-29T10:28:14;94284.22;;;3.39;100.00
40384;BME280;26097;42.366;23.818;2023-01-29T10:31:20;94286.16;;;3.15;100.00
40384;BME280;26097;42.366;23.818;2023-01-29T10:34:27;94287.50;;;3.43;100.00
40384;BME280;26097;42.366;23.818;2023-01-29T10:37:39;94282.81;;;3.51;100.00
40384;BME280;26097;42.366;23.818;2023-01-29T10:40:48;94275.09;;;3.70;100.00
40384;BME280;26097;42.366;23.818;2023-01-29T10:57:25;94280.19;;;3.13;100.00
40384;BME280;26097;42.366;23.818;2023-01-29T11:00:41;94273.53;;;2.88;100.00
40384;BME280;26097;42.366;23.818;2023-01-29T11:03:41;94270.66;;;2.96;100.00
40384;BME280;26097;42.366;23.818;2023-01-29T11:06:42;94277.03;;;2.87;100.00
40384;BME280;26097;42.366;23.818;2023-01-29T11:09:56;94274.47;;;2.66;100.00
40384;BME280;26097;42.366;23.818;2023-01-29T11:12:58;94269.94;;;2.92;100.00
40384;BME280;26097;42.366;23.818;2023-01-29T11:15:59;94257.81;;;2.94;100.00
40384;BME280;26097;42.366;23.818;2023-01-29T11:19:00;94252.56;;;2.97;100.00
40384;BME280;26097;42.366;23.818;2023-01-29T11:22:01;94256.28;;;2.90;100.00
40384;BME280;26097;42.366;23.818;2023-01-29T11:25:18;94260.03;;;2.83;100.00
40384;BME280;26097;42.366;23.818;2023-01-29T11:28:39;94244.81;;;3.56;100.00
40384;BME280;26097;42.366;23.818;2023-01-29T11:31:39;94251.97;;;3.31;100.00
40384;BME280;26097;42.366;23.818;2023-01-29T11:41:16;94248.34;;;2.76;100.00
40384;BME280;26097;42.366;23.818;2023-01-29T11:44:41;94248.09;;;2.40;100.00
40384;BME280;26097;42.366;23.818;2023-01-29T11:47:51;94249.50;;;2.48;100.00
40384;BME280;26097;42.366;23.818;2023-01-29T11:50:55;94241.50;;;2.33;100.00
40384;BME280;26097;42.366;23.818;2023-01-29T11:54:04;94240.88;;;2.69;100.00
40384;BME280;26097;42.366;23.818;2023-01-29T11:57:18;94237.63;;;2.85;100.00
40384;BME280;26097;42.366;23.818;2023-01-29T12:00:29;94243.09;;;2.98;100.00
40384;BME280;26097;42.366;23.818;2023-01-29T12:03:38;94235.44;;;2.96;100.00
40384;BME280;26097;42.366;23.818;2023-01-29T12:06:42;94233.56;;;3.00;100.00
40384;BME280;26097;42.366;23.818;2023-01-29T12:09:51;94227.34;;;2.85;100.00
40384;BME280;26097;42.366;23.818;2023-01-29T12:13:03;94222.00;;;2.90;100.00
40384;BME280;26097;42.366;23.818;2023-01-29T12:16:12;94216.81;;;3.10;100.00
40384;BME280;26097;42.366;23.818;2023-01-29T12:22:44;94209.63;;;3.17;100.00
40384;BME280;26097;42.366;23.818;2023-01-29T12:28:54;94201.41;;;2.90;100.00
40384;BME280;26097;42.366;23.818;2023-01-29T12:38:18;94203.06;;;2.51;100.00
40384;BME280;26097;42.366;23.818;2023-01-29T12:44:33;94205.63;;;2.51;100.00
40384;BME280;26097;42.366;23.818;2023-01-29T12:47:40;94209.63;;;2.17;100.00
40384;BME280;26097;42.366;23.818;2023-01-29T12:50:44;94211.66;;;2.08;100.00
40384;BME280;26097;42.366;23.818;2023-01-29T12:53:49;94207.94;;;2.16;100.00
40384;BME280;26097;42.366;23.818;2023-01-29T12:56:57;94228.00;;;2.07;100.00
40384;BME280;26097;42.366;23.818;2023-01-29T13:00:14;94230.22;;;1.94;100.00
40384;BME280;26097;42.366;23.818;2023-01-29T13:06:20;94223.53;;;1.90;100.00
40384;BME280;26097;42.366;23.818;2023-01-29T13:09:27;94218.81;;;1.79;100.00
40384;BME280;26097;42.366;23.818;2023-01-29T13:12:32;94221.00;;;1.89;100.00
40384;BME280;26097;42.366;23.818;2023-01-29T13:15:37;94219.09;;;1.94;100.00
40384;BME280;26097;42.366;23.818;2023-01-29T13:18:57;94222.06;;;2.05;100.00
40384;BME280;26097;42.366;23.818;2023-01-29T13:21:58;94223.56;;;2.11;100.00
40384;BME280;26097;42.366;23.818;2023-01-29T13:25:00;94225.41;;;2.07;100.00
40384;BME280;26097;42.366;23.818;2023-01-29T13:28:01;94226.53;;;1.79;100.00
40384;BME280;26097;42.366;23.818;2023-01-29T13:37:36;94224.38;;;1.46;100.00
40384;BME280;26097;42.366;23.818;2023-01-29T13:40:47;94226.28;;;1.41;100.00
40384;BME280;26097;42.366;23.818;2023-01-29T13:43:49;94236.69;;;1.38;100.00
40384;BME280;26097;42.366;23.818;2023-01-29T13:46:57;94239.34;;;1.35;100.00
40384;BME280;26097;42.366;23.818;2023-01-29T13:50:04;94230.84;;;1.33;100.00
40384;BME280;26097;42.366;23.818;2023-01-29T13:53:08;94237.44;;;1.16;100.00
40384;BME280;26097;42.366;23.818;2023-01-29T13:59:51;94243.09;;;1.02;100.00
40384;BME280;26097;42.366;23.818;2023-01-29T14:06:10;94245.50;;;1.07;100.00
40384;BME280;26097;42.366;23.818;2023-01-29T14:12:32;94240.47;;;0.80;100.00
40384;BME280;26097;42.366;23.818;2023-01-29T14:15:35;94249.53;;;0.65;100.00
40384;BME280;26097;42.366;23.818;2023-01-29T14:18:47;94254.50;;;0.44;100.00
40384;BME280;26097;42.366;23.818;2023-01-29T14:21:49;94243.72;;;0.34;100.00
40384;BME280;26097;42.366;23.818;2023-01-29T14:24:54;94247.91;;;0.37;100.00
40384;BME280;26097;42.366;23.818;2023-01-29T14:27:57;94239.97;;;0.45;100.00
40384;BME280;26097;42.366;23.818;2023-01-29T14:31:00;94248.75;;;0.37;100.00
40384;BME280;26097;42.366;23.818;2023-01-29T14:34:02;94246.50;;;0.28;100.00
40384;BME280;26097;42.366;23.818;2023-01-29T14:43:19;94253.72;;;-0.10;100.00
40384;BME280;26097;42.366;23.818;2023-01-29T14:46:41;94265.94;;;-0.19;100.00
40384;BME280;26097;42.366;23.818;2023-01-29T14:49:55;94257.53;;;-0.24;100.00
40384;BME280;26097;42.366;23.818;2023-01-29T14:56:16;94266.72;;;-0.45;100.00
40384;BME280;26097;42.366;23.818;2023-01-29T14:59:26;94269.41;;;-0.50;100.00
40384;BME280;26097;42.366;23.818;2023-01-29T15:02:36;94273.19;;;-0.62;100.00
40384;BME280;26097;42.366;23.818;2023-01-29T15:05:38;94272.63;;;-0.72;100.00
40384;BME280;26097;42.366;23.818;2023-01-29T15:12:56;94286.63;;;-0.85;100.00
40384;BME280;26097;42.366;23.818;2023-01-29T15:16:14;94280.81;;;-0.90;100.00
40384;BME280;26097;42.366;23.818;2023-01-29T15:19:31;94280.91;;;-0.93;100.00
40384;BME280;26097;42.366;23.818;2023-01-29T15:22:41;94281.88;;;-0.97;100.00
40384;BME280;26097;42.366;23.818;2023-01-29T15:25:50;94281.13;;;-1.01;100.00
40384;BME280;26097;42.366;23.818;2023-01-29T15:28:56;94270.22;;;-1.08;100.00
40384;BME280;26097;42.366;23.818;2023-01-29T15:31:57;94277.97;;;-1.11;100.00
40384;BME280;26097;42.366;23.818;2023-01-29T15:34:58;94278.88;;;-1.13;100.00
40384;BME280;26097;42.366;23.818;2023-01-29T15:41:16;94302.13;;;-1.21;100.00
40384;BME280;26097;42.366;23.818;2023-01-29T15:44:21;94297.09;;;-1.24;100.00
40384;BME280;26097;42.366;23.818;2023-01-29T15:47:26;94305.03;;;-1.34;100.00
40384;BME280;26097;42.366;23.818;2023-01-29T15:50:28;94298.28;;;-1.38;100.00
40384;BME280;26097;42.366;23.818;2023-01-29T15:53:34;94303.41;;;-1.38;100.00
40384;BME280;26097;42.366;23.818;2023-01-29T15:56:41;94302.69;;;-1.43;100.00
40384;BME280;26097;42.366;23.818;2023-01-29T15:59:43;94305.31;;;-1.46;100.00
40384;BME280;26097;42.366;23.818;2023-01-29T16:02:44;94309.38;;;-1.39;100.00
40384;BME280;26097;42.366;23.818;2023-01-29T16:05:44;94314.66;;;-1.45;100.00
40384;BME280;26097;42.366;23.818;2023-01-29T16:08:48;94315.72;;;-1.52;100.00
40384;BME280;26097;42.366;23.818;2023-01-29T16:11:52;94307.47;;;-1.64;100.00
40384;BME280;26097;42.366;23.818;2023-01-29T16:14:54;94309.38;;;-1.72;100.00
40384;BME280;26097;42.366;23.818;2023-01-29T16:17:55;94302.50;;;-1.70;100.00
40384;BME280;26097;42.366;23.818;2023-01-29T16:20:59;94307.53;;;-1.67;100.00
40384;BME280;26097;42.366;23.818;2023-01-29T16:27:07;94310.06;;;-1.65;100.00
40384;BME280;26097;42.366;23.818;2023-01-29T16:30:15;94320.16;;;-1.61;100.00
40384;BME280;26097;42.366;23.818;2023-01-29T16:33:16;94319.28;;;-1.60;100.00
40384;BME280;26097;42.366;23.818;2023-01-29T16:36:20;94320.97;;;-1.59;100.00
40384;BME280;26097;42.366;23.818;2023-01-29T16:39:24;94327.75;;;-1.58;100.00
40384;BME280;26097;42.366;23.818;2023-01-29T16:42:29;94323.47;;;-1.55;100.00
40384;BME280;26097;42.366;23.818;2023-01-29T16:45:29;94330.19;;;-1.53;100.00
40384;BME280;26097;42.366;23.818;2023-01-29T16:48:32;94325.94;;;-1.52;100.00
40384;BME280;26097;42.366;23.818;2023-01-29T16:51:37;94327.56;;;-1.50;100.00
40384;BME280;26097;42.366;23.818;2023-01-29T16:54:41;94330.88;;;-1.45;100.00
40384;BME280;26097;42.366;23.818;2023-01-29T16:57:53;94318.97;;;-1.46;100.00
40384;BME280;26097;42.366;23.818;2023-01-29T17:00:58;94329.13;;;-1.44;100.00
40384;BME280;26097;42.366;23.818;2023-01-29T17:04:09;94324.88;;;-1.44;100.00
40384;BME280;26097;42.366;23.818;2023-01-29T17:07:15;94324.03;;;-1.44;100.00
40384;BME280;26097;42.366;23.818;2023-01-29T17:10:20;94324.00;;;-1.42;100.00
40384;BME280;26097;42.366;23.818;2023-01-29T17:13:39;94325.63;;;-1.40;100.00
40384;BME280;26097;42.366;23.818;2023-01-29T17:16:51;94327.38;;;-1.42;100.00
40384;BME280;26097;42.366;23.818;2023-01-29T17:19:52;94327.38;;;-1.42;100.00
40384;BME280;26097;42.366;23.818;2023-01-29T17:22:52;94323.25;;;-1.48;100.00
40384;BME280;26097;42.366;23.818;2023-01-29T17:25:53;94323.38;;;-1.52;100.00
40384;BME280;26097;42.366;23.818;2023-01-29T17:28:53;94330.19;;;-1.53;100.00
40384;BME280;26097;42.366;23.818;2023-01-29T17:31:54;94326.75;;;-1.50;100.00
40384;BME280;26097;42.366;23.818;2023-01-29T17:34:55;94327.38;;;-1.42;100.00
40384;BME280;26097;42.366;23.818;2023-01-29T17:37:55;94328.16;;;-1.38;100.00
40384;BME280;26097;42.366;23.818;2023-01-29T17:41:04;94327.34;;;-1.40;100.00
40384;BME280;26097;42.366;23.818;2023-01-29T17:44:05;94324.88;;;-1.44;100.00
40384;BME280;26097;42.366;23.818;2023-01-29T17:47:05;94320.63;;;-1.45;100.00
40384;BME280;26097;42.366;23.818;2023-01-29T17:50:18;94311.41;;;-1.50;100.00
40384;BME280;26097;42.366;23.818;2023-01-29T17:53:21;94314.03;;;-1.53;100.00
40384;BME280;26097;42.366;23.818;2023-01-29T17:56:25;94313.28;;;-1.59;100.00
40384;BME280;26097;42.366;23.818;2023-01-29T17:59:32;94315.44;;;-1.76;100.00
40384;BME280;26097;42.366;23.818;2023-01-29T18:02:33;94313.34;;;-1.95;100.00
40384;BME280;26097;42.366;23.818;2023-01-29T18:05:33;94314.44;;;-2.07;100.00
40384;BME280;26097;42.366;23.818;2023-01-29T18:08:35;94316.16;;;-2.06;100.00
40384;BME280;26097;42.366;23.818;2023-01-29T18:11:37;94316.91;;;-2.02;100.00